EmailTwitter


Surface observations / France / LFBO (07630)

Regions: Quebec | Canada | USA | Europe | France | UK | Elsewhere
Station
Display
Info & Location for LFBO (07630) | Help decoding METAR

Weather Conditions observed on 2018/08/21 at 18:00 UTC at TOULOUSE/BLAGNAC, FR (LFBO)

Temperature: 31.0 Celsius.

Dewpoint: 15.0 Celsius.

Relative Humidity: 38%

Humidex: 35.

Winds: North at 9 km/h or 5 knots.

Mean Sea level Pressure: 101.50 kilopascals.

Coded METAR:

LFBO 211800Z AUTO 36005KT 320V030 CAVOK 31/15 Q1015 NOSIG=